MSC Lea — 9HA2639 — position and weather

sailwx.info

Track history (hours):
 
Tides and Currents Weather Stations Pressure Air Temp Water Temp Dewpoint Dewpoint Depression Visibility Wind Speed Wind Dir Waves Ship Positions

MSC Lea

Last reported at 2016-May-01 01:14 UTC. Time now 2016-May-01 06:07 UTC.
Position N 31°48' E 034°34'.

Length 217 m; draft 10.8 m.

Type: Ship (hazmat cat A). MMSI: 215101000.

Date/timePositionNaut miles runAvg speedWind from/ knotsBaromVisibWave heightAir tempDewpointWater temp
2016-May-01 01:14N 31°48' E 034°34'0 0.1
2016-May-01 00:32N 31°48' E 034°34'0 0.1
2016-Apr-30 23:30N 31°48' E 034°34'0 0.0
2016-Apr-30 22:30N 31°48' E 034°34'0 0.0
2016-Apr-30 21:31N 31°48' E 034°34'0 0.0
2016-Apr-30 20:32N 31°48' E 034°34'0 0.0
2016-Apr-30 19:32N 31°48' E 034°34'0 0.0
2016-Apr-30 18:33N 31°48' E 034°34'0 0.0
2016-Apr-30 17:31N 31°48' E 034°34'0 0.0
2016-Apr-30 16:31N 31°48' E 034°34'0 0.0
2016-Apr-30 14:33N 31°48' E 034°34'0 0.0
2016-Apr-30 13:30N 31°48' E 034°34'0 0.0
2016-Apr-30 12:10N 31°48' E 034°34'0 0.0
2016-Apr-30 11:32N 31°48' E 034°34'0 0.0
2016-Apr-30 10:32N 31°48' E 034°34'0 0.0
2016-Apr-30 09:30N 31°48' E 034°34'0 0.0
2016-Apr-30 08:28N 31°48' E 034°34'0 0.1
2016-Apr-30 07:31N 31°48' E 034°34'0 0.0
2016-Apr-30 06:32N 31°48' E 034°34'0 0.1
2016-Apr-30 05:33N 31°48' E 034°34'0 0.0
2016-Apr-30 01:32N 31°48' E 034°34'0 0.0
2016-Apr-30 00:27N 31°48' E 034°34'0 0.0
2016-Apr-29 23:19N 31°48' E 034°34'0 0.1
2016-Apr-29 21:11N 31°48' E 034°34'0 0.0
2016-Apr-29 20:27N 31°48' E 034°34'0 0.0
2016-Apr-29 19:30N 31°48' E 034°34'0 0.0
2016-Apr-29 18:22N 31°48' E 034°34'0 0.2
2016-Apr-29 17:28N 31°48' E 034°34'2412.6
2016-Apr-29 15:33N 31°60' E 034°09'1615.9
2016-Apr-29 14:33N 32°06' E 033°52'2015.3
2016-Apr-29 13:17N 32°06' E 033°29'7915.7
2016-Apr-29 08:13N 32°00' E 031°55'11214.2
2016-Apr-29 00:22N 31°20' E 029°53'12 2.9
2016-Apr-28 20:18N 31°09' E 029°48'0 0.0
2016-Apr-28 17:32N 31°09' E 029°48'222 5.5
2016-Apr-27 01:23N 32°58' E 033°36'6112.7
2016-Apr-26 20:33N 32°55' E 034°49'1211.9
2016-Apr-26 19:33N 32°50' E 035°01'1 1.2
2016-Apr-26 18:33N 32°49' E 035°01'0 0.0
2016-Apr-26 17:31N 32°49' E 035°01'0 0.0
2016-Apr-26 16:32N 32°49' E 035°01'0 0.0
2016-Apr-26 15:32N 32°49' E 035°01'0 0.0
2016-Apr-26 14:33N 32°49' E 035°01'0 0.0
2016-Apr-26 13:31N 32°49' E 035°01'0 0.0
2016-Apr-26 12:31N 32°49' E 035°01'0 0.0
2016-Apr-26 11:32N 32°49' E 035°01'0 0.0
2016-Apr-26 10:33N 32°49' E 035°01'0 0.0
2016-Apr-26 09:33N 32°49' E 035°01'0 0.0
2016-Apr-26 08:31N 32°49' E 035°01'0 0.0
2016-Apr-26 07:32N 32°49' E 035°01'0 0.0
2016-Apr-26 06:32N 32°49' E 035°01'0 0.0
2016-Apr-26 05:33N 32°49' E 035°01'0 0.0
2016-Apr-26 04:28N 32°49' E 035°01'0 0.0
2016-Apr-26 03:31N 32°49' E 035°01'1 0.7
2016-Apr-26 02:33N 32°50' E 035°01'4 3.8
2016-Apr-26 01:33N 32°52' E 034°58'1111.5
2016-Apr-26 00:34N 32°56' E 034°45'1414.2
2016-Apr-25 23:34N 32°58' E 034°28'1514.6
2016-Apr-25 22:34N 33°01' E 034°11'1514.9
2016-Apr-25 21:33N 33°04' E 033°54'1514.8
2016-Apr-25 20:33N 33°07' E 033°36'1414.2
2016-Apr-25 19:33N 33°10' E 033°20'1413.9
2016-Apr-25 18:34N 33°13' E 033°04'1414.1
2016-Apr-25 17:33N 33°16' E 032°47'1414.3
2016-Apr-25 16:34N 33°20' E 032°31'1514.5
2016-Apr-25 15:33N 33°23' E 032°14'1714.5
2016-Apr-25 14:21N 33°27' E 031°53'  
2016-Apr-23 07:21N 37°09' E 017°38'2312.9
2016-Apr-23 05:32N 37°17' E 017°10'1613.1
2016-Apr-23 04:20N 37°23' E 016°52'3713.1
2016-Apr-23 01:31N 37°37' E 016°09'1512.8
2016-Apr-23 00:19N 37°43' E 015°51'1012.4
2016-Apr-22 23:32N 37°50' E 015°41'1313.1
2016-Apr-22 22:34N 38°01' E 015°33'1413.8
2016-Apr-22 21:34N 38°14' E 015°36'1615.8
2016-Apr-22 20:33N 38°26' E 015°50'3 3.3
2016-Apr-22 19:31N 38°27' E 015°54'0 0.0
2016-Apr-22 18:32N 38°27' E 015°54'0 0.0
2016-Apr-22 17:33N 38°27' E 015°54'0 0.0
2016-Apr-22 16:33N 38°27' E 015°54'0 0.0
2016-Apr-22 15:31N 38°27' E 015°54'0 0.0
2016-Apr-22 14:32N 38°27' E 015°54'0 0.0
2016-Apr-22 13:29N 38°27' E 015°54'0 0.0
2016-Apr-22 12:33N 38°27' E 015°54'0 0.0
2016-Apr-22 11:28N 38°27' E 015°54'0 0.0
2016-Apr-22 10:29N 38°27' E 015°54'0 0.0
2016-Apr-22 09:32N 38°27' E 015°54'0 0.0
2016-Apr-22 08:33N 38°27' E 015°54'0 0.0
2016-Apr-22 07:33N 38°27' E 015°54'0 0.0
2016-Apr-22 06:28N 38°27' E 015°54'0 0.0
2016-Apr-22 05:32N 38°27' E 015°54'0 0.0
2016-Apr-22 04:24N 38°27' E 015°54'0 0.0
2016-Apr-22 03:33N 38°27' E 015°54'0 0.0
2016-Apr-22 02:31N 38°27' E 015°54'0 0.0
2016-Apr-22 01:32N 38°27' E 015°54'0 0.0
2016-Apr-22 00:29N 38°27' E 015°54'0 0.0
2016-Apr-21 23:30N 38°27' E 015°54'0 0.0
2016-Apr-21 22:34N 38°27' E 015°54'0 0.0
2016-Apr-21 21:28N 38°27' E 015°54'0 0.0
2016-Apr-21 20:32N 38°27' E 015°54'0 0.0
2016-Apr-21 19:33N 38°27' E 015°54'0 0.0
2016-Apr-21 18:33N 38°27' E 015°54'0 0.0
2016-Apr-21 17:31N 38°27' E 015°54'0 0.0
2016-Apr-21 16:32N 38°27' E 015°54'0 0.0
2016-Apr-21 15:32N 38°27' E 015°54'0 0.0
2016-Apr-21 14:33N 38°27' E 015°54'0 0.0
2016-Apr-21 13:31N 38°27' E 015°54'0 0.0
2016-Apr-21 12:31N 38°27' E 015°54'0 0.0
2016-Apr-21 11:29N 38°27' E 015°54'0 0.0
2016-Apr-21 10:33N 38°27' E 015°54'0 0.0
2016-Apr-21 09:30N 38°27' E 015°54'0 0.0
2016-Apr-21 08:31N 38°27' E 015°54'0 0.2
2016-Apr-21 07:33N 38°27' E 015°54'10 9.9
2016-Apr-21 06:33N 38°30' E 015°42'3 2.8
2016-Apr-21 05:34N 38°30' E 015°39'1 0.9
2016-Apr-21 04:34N 38°29' E 015°39'1 0.7
2016-Apr-21 03:33N 38°29' E 015°39'1 0.6
2016-Apr-21 02:33N 38°28' E 015°40'1 0.5
2016-Apr-21 01:34N 38°28' E 015°41'  
Track history (hours):
 
Tides and Currents Weather Stations Pressure Air Temp Water Temp Dewpoint Dewpoint Depression Visibility Wind Speed Wind Dir Waves Ship Positions

MSC Lea

Last reported at 2016-May-01 01:14 UTC. Time now 2016-May-01 06:07 UTC.
Position N 31°48' E 034°34'.

Length 217 m; draft 10.8 m.

Type: Ship (hazmat cat A). MMSI: 215101000.

Date/timePositionNaut miles runAvg speedWind from/ knotsBaromVisibWave heightAir tempDewpointWater temp
2016-May-01 01:14N 31°48' E 034°34'0 0.1
2016-May-01 00:32N 31°48' E 034°34'0 0.1
2016-Apr-30 23:30N 31°48' E 034°34'0 0.0
2016-Apr-30 22:30N 31°48' E 034°34'0 0.0
2016-Apr-30 21:31N 31°48' E 034°34'0 0.0
2016-Apr-30 20:32N 31°48' E 034°34'0 0.0
2016-Apr-30 19:32N 31°48' E 034°34'0 0.0
2016-Apr-30 18:33N 31°48' E 034°34'0 0.0
2016-Apr-30 17:31N 31°48' E 034°34'0 0.0
2016-Apr-30 16:31N 31°48' E 034°34'0 0.0
2016-Apr-30 14:33N 31°48' E 034°34'0 0.0
2016-Apr-30 13:30N 31°48' E 034°34'0 0.0
2016-Apr-30 12:10N 31°48' E 034°34'0 0.0
2016-Apr-30 11:32N 31°48' E 034°34'0 0.0
2016-Apr-30 10:32N 31°48' E 034°34'0 0.0
2016-Apr-30 09:30N 31°48' E 034°34'0 0.0
2016-Apr-30 08:28N 31°48' E 034°34'0 0.1
2016-Apr-30 07:31N 31°48' E 034°34'0 0.0
2016-Apr-30 06:32N 31°48' E 034°34'0 0.1
2016-Apr-30 05:33N 31°48' E 034°34'0 0.0
2016-Apr-30 01:32N 31°48' E 034°34'0 0.0
2016-Apr-30 00:27N 31°48' E 034°34'0 0.0
2016-Apr-29 23:19N 31°48' E 034°34'0 0.1
2016-Apr-29 21:11N 31°48' E 034°34'0 0.0
2016-Apr-29 20:27N 31°48' E 034°34'0 0.0
2016-Apr-29 19:30N 31°48' E 034°34'0 0.0
2016-Apr-29 18:22N 31°48' E 034°34'0 0.2
2016-Apr-29 17:28N 31°48' E 034°34'2412.6
2016-Apr-29 15:33N 31°60' E 034°09'1615.9
2016-Apr-29 14:33N 32°06' E 033°52'2015.3
2016-Apr-29 13:17N 32°06' E 033°29'7915.7
2016-Apr-29 08:13N 32°00' E 031°55'11214.2
2016-Apr-29 00:22N 31°20' E 029°53'12 2.9
2016-Apr-28 20:18N 31°09' E 029°48'0 0.0
2016-Apr-28 17:32N 31°09' E 029°48'222 5.5
2016-Apr-27 01:23N 32°58' E 033°36'6112.7
2016-Apr-26 20:33N 32°55' E 034°49'1211.9
2016-Apr-26 19:33N 32°50' E 035°01'1 1.2
2016-Apr-26 18:33N 32°49' E 035°01'0 0.0
2016-Apr-26 17:31N 32°49' E 035°01'0 0.0
2016-Apr-26 16:32N 32°49' E 035°01'0 0.0
2016-Apr-26 15:32N 32°49' E 035°01'0 0.0
2016-Apr-26 14:33N 32°49' E 035°01'0 0.0
2016-Apr-26 13:31N 32°49' E 035°01'0 0.0
2016-Apr-26 12:31N 32°49' E 035°01'0 0.0
2016-Apr-26 11:32N 32°49' E 035°01'0 0.0
2016-Apr-26 10:33N 32°49' E 035°01'0 0.0
2016-Apr-26 09:33N 32°49' E 035°01'0 0.0
2016-Apr-26 08:31N 32°49' E 035°01'0 0.0
2016-Apr-26 07:32N 32°49' E 035°01'0 0.0
2016-Apr-26 06:32N 32°49' E 035°01'0 0.0
2016-Apr-26 05:33N 32°49' E 035°01'0 0.0
2016-Apr-26 04:28N 32°49' E 035°01'0 0.0
2016-Apr-26 03:31N 32°49' E 035°01'1 0.7
2016-Apr-26 02:33N 32°50' E 035°01'4 3.8
2016-Apr-26 01:33N 32°52' E 034°58'1111.5
2016-Apr-26 00:34N 32°56' E 034°45'1414.2
2016-Apr-25 23:34N 32°58' E 034°28'1514.6
2016-Apr-25 22:34N 33°01' E 034°11'1514.9
2016-Apr-25 21:33N 33°04' E 033°54'1514.8
2016-Apr-25 20:33N 33°07' E 033°36'1414.2
2016-Apr-25 19:33N 33°10' E 033°20'1413.9
2016-Apr-25 18:34N 33°13' E 033°04'1414.1
2016-Apr-25 17:33N 33°16' E 032°47'1414.3
2016-Apr-25 16:34N 33°20' E 032°31'1514.5
2016-Apr-25 15:33N 33°23' E 032°14'1714.5
2016-Apr-25 14:21N 33°27' E 031°53'  
2016-Apr-23 07:21N 37°09' E 017°38'2312.9
2016-Apr-23 05:32N 37°17' E 017°10'1613.1
2016-Apr-23 04:20N 37°23' E 016°52'3713.1
2016-Apr-23 01:31N 37°37' E 016°09'1512.8
2016-Apr-23 00:19N 37°43' E 015°51'1012.4
2016-Apr-22 23:32N 37°50' E 015°41'1313.1
2016-Apr-22 22:34N 38°01' E 015°33'1413.8
2016-Apr-22 21:34N 38°14' E 015°36'1615.8
2016-Apr-22 20:33N 38°26' E 015°50'3 3.3
2016-Apr-22 19:31N 38°27' E 015°54'0 0.0
2016-Apr-22 18:32N 38°27' E 015°54'0 0.0
2016-Apr-22 17:33N 38°27' E 015°54'0 0.0
2016-Apr-22 16:33N 38°27' E 015°54'0 0.0
2016-Apr-22 15:31N 38°27' E 015°54'0 0.0
2016-Apr-22 14:32N 38°27' E 015°54'0 0.0
2016-Apr-22 13:29N 38°27' E 015°54'0 0.0
2016-Apr-22 12:33N 38°27' E 015°54'0 0.0
2016-Apr-22 11:28N 38°27' E 015°54'0 0.0
2016-Apr-22 10:29N 38°27' E 015°54'0 0.0
2016-Apr-22 09:32N 38°27' E 015°54'0 0.0
2016-Apr-22 08:33N 38°27' E 015°54'0 0.0
2016-Apr-22 07:33N 38°27' E 015°54'0 0.0
2016-Apr-22 06:28N 38°27' E 015°54'0 0.0
2016-Apr-22 05:32N 38°27' E 015°54'0 0.0
2016-Apr-22 04:24N 38°27' E 015°54'0 0.0
2016-Apr-22 03:33N 38°27' E 015°54'0 0.0
2016-Apr-22 02:31N 38°27' E 015°54'0 0.0
2016-Apr-22 01:32N 38°27' E 015°54'0 0.0
2016-Apr-22 00:29N 38°27' E 015°54'0 0.0
2016-Apr-21 23:30N 38°27' E 015°54'0 0.0
2016-Apr-21 22:34N 38°27' E 015°54'0 0.0
2016-Apr-21 21:28N 38°27' E 015°54'0 0.0
2016-Apr-21 20:32N 38°27' E 015°54'0 0.0
2016-Apr-21 19:33N 38°27' E 015°54'0 0.0
2016-Apr-21 18:33N 38°27' E 015°54'0 0.0
2016-Apr-21 17:31N 38°27' E 015°54'0 0.0
2016-Apr-21 16:32N 38°27' E 015°54'0 0.0
2016-Apr-21 15:32N 38°27' E 015°54'0 0.0
2016-Apr-21 14:33N 38°27' E 015°54'0 0.0
2016-Apr-21 13:31N 38°27' E 015°54'0 0.0
2016-Apr-21 12:31N 38°27' E 015°54'0 0.0
2016-Apr-21 11:29N 38°27' E 015°54'0 0.0
2016-Apr-21 10:33N 38°27' E 015°54'0 0.0
2016-Apr-21 09:30N 38°27' E 015°54'0 0.0
2016-Apr-21 08:31N 38°27' E 015°54'0 0.2
2016-Apr-21 07:33N 38°27' E 015°54'10 9.9
2016-Apr-21 06:33N 38°30' E 015°42'3 2.8
2016-Apr-21 05:34N 38°30' E 015°39'1 0.9
2016-Apr-21 04:34N 38°29' E 015°39'1 0.7
2016-Apr-21 03:33N 38°29' E 015°39'1 0.6
2016-Apr-21 02:33N 38°28' E 015°40'1 0.5
2016-Apr-21 01:34N 38°28' E 015°41'  

Dump ship's entire track history